Latest Weather Observations for Camden

IDN60801

Issued at 1:02 pm EST Monday 26 August 2019 (issued every 10 minutes, with the page automatically refreshed every 10 minutes)

About weather observations | Map of weather stations | Latest weather observations for NSW | Other Formats
Station Details ID: 068192 Name: CAMDEN AIRPORT AWS Lat: -34.04 Lon: 150.69 Height: 73.9 m
Data from the previous 72 hours. | See also: Recent months at Camden
Date/Time
EST
Temp
°C
App
Temp
°C
Dew
Point
°C
Rel
Hum
%
Delta-T
°C
Wind Press
QNH
hPa
Press
MSL
hPa
Rain since
9am
mm
Dir  Spd
km/h
Gust
km/h
Spd
kts
Gust
kts
26/01:00pm 13.1 11.6 9.0 76 2.1 WSW 7 9 4 5 1022.1 1022.2 0.0
26/12:30pm 13.1 11.2 9.0 76 2.1 SSW 9 13 5 7 1022.5 1022.6 0.0
26/12:00pm 13.1 10.3 8.6 74 2.2 S 13 19 7 10 1022.9 1023.0 0.0
26/11:30am 13.3 10.8 8.0 70 2.6 S 11 17 6 9 1023.1 1023.2 0.0
26/11:00am 13.4 10.9 8.3 71 2.5 SSE 11 13 6 7 1023.3 1023.4 0.0
26/10:30am 13.3 10.8 8.2 71 2.5 SSW 11 17 6 9 1023.4 1023.5 0.0
26/10:00am 13.2 10.7 8.3 72 2.4 S 11 17 6 9 1023.4 1023.5 0.0
26/09:30am 13.3 11.2 8.4 72 2.5 S 9 13 5 7 1023.5 1023.6 0.0
26/09:00am 12.6 9.8 8.5 76 2.0 S 13 15 7 8 1023.5 1023.6 0.0
26/08:30am 12.3 10.2 8.4 77 1.9 S 9 17 5 9 1023.5 1023.6 0.0
26/08:00am 12.2 9.3 8.3 77 1.9 SSW 13 17 7 9 1023.3 1023.4 0.0
26/07:30am 12.0 10.3 8.3 78 1.8 SSW 7 9 4 5 1023.0 1023.1 0.0
26/07:00am 11.7 10.1 8.6 81 1.5 SSW 7 9 4 5 1022.7 1022.8 0.0
26/06:30am 11.4 9.8 8.6 83 1.4 SSW 7 9 4 5 1022.5 1022.6 0.0
26/06:00am 11.3 9.9 8.7 84 1.3 SSW 6 9 3 5 1022.1 1022.2 0.0
26/05:30am 11.1 9.7 8.7 85 1.2 SSW 6 9 3 5 1021.7 1021.8 0.0
26/05:00am 11.2 9.8 8.8 85 1.2 WSW 6 7 3 4 1021.5 1021.6 0.0
26/04:30am 11.3 9.7 8.9 85 1.2 SW 7 11 4 6 1021.2 1021.3 0.0
26/04:00am 11.9 9.8 8.4 79 1.7 SW 9 13 5 7 1021.5 1021.6 0.0
26/03:30am 12.1 10.3 8.0 76 2.0 SW 7 11 4 6 1021.3 1021.4 0.0
26/03:00am 12.2 10.0 7.9 75 2.1 S 9 13 5 7 1021.3 1021.4 0.0
26/02:30am 12.2 10.0 7.9 75 2.1 S 9 13 5 7 1021.4 1021.5 0.0
26/02:00am 12.3 10.7 8.0 75 2.1 SSW 6 9 3 5 1021.6 1021.7 0.0
26/01:30am 12.2 11.8 8.1 76 2.0 CALM 0 0 0 0 1021.7 1021.8 0.0
26/01:00am 12.3 10.7 8.2 76 2.0 SW 6 9 3 5 1021.9 1022.0 0.0
26/12:30am 12.2 10.1 8.3 77 1.9 SW 9 13 5 7 1021.9 1022.0 0.0
26/12:00am 12.3 10.6 8.2 76 2.0 SSW 7 11 4 6 1022.0 1022.1 0.0
 
Date/Time
EST
Temp
°C
App
Temp
°C
Dew
Point
°C
Rel
Hum
%
Delta-T
°C
Wind Press
QNH
hPa
Press
MSL
hPa
Rain since
9am
mm
Dir  Spd
km/h
Gust
km/h
Spd
kts
Gust
kts
25/11:30pm 12.6 10.8 8.1 74 2.2 SW 7 11 4 6 1022.1 1022.2 0.0
25/11:00pm 12.7 11.0 8.2 74 2.2 SSW 7 9 4 5 1021.9 1022.0 0.0
25/10:30pm 12.9 11.3 8.2 73 2.3 SSW 6 9 3 5 1021.9 1022.0 0.0
25/10:00pm 12.8 11.0 7.9 72 2.4 SW 7 9 4 5 1021.7 1021.8 0.0
25/09:30pm 13.0 11.4 7.9 71 2.5 SSW 6 7 3 4 1021.7 1021.8 0.0
25/09:00pm 13.3 11.5 8.0 70 2.6 SW 7 11 4 6 1021.5 1021.6 0.0
25/08:30pm 13.3 11.1 8.0 70 2.6 SSW 9 13 5 7 1021.3 1021.4 0.0
25/08:00pm 13.6 11.1 8.0 69 2.8 S 11 15 6 8 1021.3 1021.4 0.0
25/07:30pm 13.7 11.1 7.9 68 2.9 SSE 11 15 6 8 1021.1 1021.2 0.0
25/07:00pm 13.9 11.8 8.1 68 2.9 SSE 9 15 5 8 1020.9 1021.0 0.0
25/06:30pm 14.0 11.5 8.0 67 3.0 S 11 17 6 9 1020.5 1020.6 0.0
25/06:00pm 14.3 11.0 8.0 66 3.1 SSE 15 20 8 11 1020.2 1020.2 0.0
25/05:30pm 14.6 11.7 8.1 65 3.3 SSE 13 22 7 12 1019.7 1019.7 0.0
25/05:00pm 15.3 11.9 7.8 61 3.7 SSE 15 24 8 13 1019.2 1019.2 0.0
25/04:30pm 16.0 13.1 8.0 59 4.0 SE 13 22 7 12 1018.6 1018.6 0.0
25/04:00pm 17.1 13.3 7.7 54 4.7 SSE 17 24 9 13 1018.1 1018.1 0.0
25/03:30pm 16.7 12.5 8.1 57 4.4 SSE 20 28 11 15 1017.9 1017.9 0.0
25/03:00pm 17.2 12.5 7.8 54 4.8 SSE 22 30 12 16 1017.5 1017.5 0.0
25/02:30pm 18.3 14.0 8.0 51 5.3 SE 20 33 11 18 1017.1 1017.1 0.0
25/02:00pm 18.7 14.5 8.1 50 5.5 SE 20 30 11 16 1016.9 1016.9 0.0
25/01:30pm 19.3 15.0 8.0 48 5.8 ESE 20 33 11 18 1016.6 1016.6 0.0
25/01:00pm 20.6 16.2 7.6 43 6.7 SE 20 28 11 15 1016.4 1016.4 0.0
25/12:30pm 22.3 17.1 2.4 27 9.4 ESE 19 28 10 15 1016.1 1016.1 0.0
25/12:00pm 23.1 18.3 -2.5 18 11.1 NNW 13 26 7 14 1016.1 1016.1 0.0
25/11:30am 22.2 19.2 -1.8 20 10.5 NE 4 11 2 6 1016.5 1016.5 0.0
25/11:00am 21.2 18.9 -2.6 20 10.1 CALM 0 6 0 3 1017.1 1017.1 0.0
25/10:30am 20.5 18.3 -1.3 23 9.5 CALM 0 0 0 0 1017.2 1017.2 0.0
25/10:00am 18.5 16.4 -0.8 27 8.3 CALM 0 6 0 3 1017.5 1017.5 0.0
25/09:30am 15.8 13.6 -1.3 31 7.1 CALM 0 0 0 0 1017.7 1017.7 0.0
25/09:00am 12.3 10.3 0.1 43 5.0 CALM 0 6 0 3 1017.7 1017.7 0.0
25/08:30am 9.1 6.1 0.6 55 3.4 SE 6 11 3 6 1017.7 1017.7 0.0
25/08:00am 5.5 3.7 1.2 74 1.7 CALM 0 4 0 2 1017.3 1017.3 0.0
25/07:30am 3.1 1.2 0.8 85 0.9 CALM 0 0 0 0 1017.1 1017.1 0.0
25/07:00am 0.7 -1.4 -1.1 88 0.6 CALM 0 0 0 0 1016.7 1016.7 0.0
25/06:30am 0.6 -1.5 -0.5 92 0.4 CALM 0 0 0 0 1016.3 1016.3 0.0
25/06:00am 0.4 -1.7 -0.6 93 0.4 CALM 0 0 0 0 1015.8 1015.8 0.0
25/05:30am 1.1 -1.0 -0.7 88 0.6 CALM 0 0 0 0 1015.6 1015.6 0.0
25/05:00am 0.7 -1.5 -1.4 86 0.8 CALM 0 0 0 0 1015.3 1015.4 0.0
25/04:30am 1.2 -1.0 -1.5 82 0.9 CALM 0 0 0 0 1015.1 1015.2 0.0
25/04:00am 2.3 -0.2 -0.8 80 1.1 WSW 2 7 1 4 1014.9 1015.0 0.0
25/03:30am 2.6 0.5 -0.7 79 1.2 CALM 0 7 0 4 1014.9 1015.0 0.0
25/03:00am 2.8 -0.9 -0.1 81 1.1 SSE 9 17 5 9 1014.5 1014.6 0.0
25/02:30am 2.2 -0.3 -0.9 80 1.1 SW 2 9 1 5 1014.8 1014.9 0.0
25/02:00am 3.1 0.9 -1.3 73 1.6 CALM 0 0 0 0 1014.7 1014.8 0.0
25/01:30am 3.8 1.0 -0.6 73 1.6 S 4 7 2 4 1014.7 1014.8 0.0
25/01:00am 4.3 2.2 -0.5 71 1.8 CALM 0 0 0 0 1014.8 1014.9 0.0
25/12:30am 4.3 2.2 -0.5 71 1.8 CALM 0 0 0 0 1014.9 1015.0 0.0
25/12:00am 5.0 2.8 -1.2 64 2.3 CALM 0 0 0 0 1014.9 1015.0 0.0
 
Date/Time
EST
Temp
°C
App
Temp
°C
Dew
Point
°C
Rel
Hum
%
Delta-T
°C
Wind Press
QNH
hPa
Press
MSL
hPa
Rain since
9am
mm
Dir  Spd
km/h
Gust
km/h
Spd
kts
Gust
kts
24/11:30pm 5.6 3.5 -1.1 62 2.5 CALM 0 0 0 0 1015.1 1015.2 0.0
24/11:00pm 6.6 3.7 -1.3 57 3.0 S 4 9 2 5 1015.2 1015.3 0.0
24/10:30pm 6.0 2.6 -1.9 57 2.9 SSE 6 9 3 5 1015.0 1015.1 0.0
24/10:00pm 7.6 4.3 -1.4 53 3.4 S 6 9 3 5 1015.0 1015.1 0.0
24/09:30pm 8.0 5.8 -1.8 50 3.7 CALM 0 0 0 0 1015.0 1015.1 0.0
24/09:00pm 9.7 6.8 -1.1 47 4.2 S 4 11 2 6 1015.1 1015.2 0.0
24/08:30pm 12.9 9.3 -1.8 36 5.9 NNW 7 9 4 5 1015.2 1015.3 0.0
24/08:00pm 14.3 11.7 -1.7 33 6.5 NW 2 6 1 3 1015.5 1015.5 0.0
24/07:30pm 16.4 12.4 -2.1 28 7.6 NNW 9 11 5 6 1015.6 1015.6 0.0
24/07:00pm 16.2 11.9 -1.8 29 7.4 NNW 11 13 6 7 1015.5 1015.5 0.0
24/06:30pm 16.9 12.2 -1.7 28 7.7 NNW 13 15 7 8 1015.3 1015.4 0.0
24/06:00pm 18.6 13.9 -1.8 25 8.6 NNW 13 15 7 8 1015.0 1015.1 0.0
24/05:30pm 19.7 14.9 -2.6 22 9.4 NNW 13 17 7 9 1014.6 1014.7 0.0
24/05:00pm 22.1 16.5 -3.3 18 10.7 NNW 17 24 9 13 1014.3 1014.4 0.0
24/04:30pm 23.6 18.0 -2.8 17 11.4 NW 17 22 9 12 1014.2 1014.3 0.0
24/04:00pm 24.1 17.6 -2.4 17 11.6 NW 22 32 12 17 1014.1 1014.2 0.0
24/03:30pm 24.2 18.2 -1.6 18 11.5 NNW 20 28 11 15 1014.2 1014.3 0.0
24/03:00pm 24.4 18.4 -1.4 18 11.5 NW 20 30 11 16 1014.5 1014.6 0.0
24/02:30pm 24.5 18.7 -1.3 18 11.6 NNW 19 28 10 15 1014.7 1014.8 0.0
24/02:00pm 24.1 18.7 -1.7 18 11.4 NW 17 26 9 14 1015.1 1015.2 0.0
24/01:30pm 24.4 18.5 -0.7 19 11.4 NW 20 30 11 16 1015.5 1015.5 0.0
24/01:00pm 23.1 16.7 -1.8 19 10.9 NW 22 30 12 16 1016.0 1016.0 0.0
24/12:30pm 22.9 17.8 -1.9 19 10.9 WNW 15 26 8 14 1016.6 1016.6 0.0
24/12:00pm 22.4 15.3 -1.6 20 10.5 NW 26 35 14 19 1017.4 1017.4 0.0
24/11:30am 21.7 14.6 -1.6 21 10.2 NW 26 35 14 19 1018.1 1018.1 0.0
24/11:00am 20.5 15.2 -0.7 24 9.3 WNW 17 24 9 13 1018.7 1018.7 0.0
24/10:30am 17.1 15.3 1.1 34 7.1 CALM 0 7 0 4 1019.6 1019.6 0.0
24/10:00am 14.7 12.8 2.6 44 5.4 SE 2 7 1 4 1020.1 1020.1 0.0
24/09:30am 11.2 8.8 2.2 54 3.9 SW 4 9 2 5 1020.5 1020.6 0.0
24/09:00am 8.7 7.1 2.7 66 2.5 CALM 0 6 0 3 1021.1 1021.2 0.0
24/08:30am 5.0 3.3 1.8 80 1.3 CALM 0 6 0 3 1021.3 1021.4 0.0
24/08:00am 2.6 0.9 1.7 94 0.3 CALM 0 0 0 0 1021.3 1021.4 0.0
24/07:30am 0.3 -1.7 0.2 99 0.0 CALM 0 0 0 0 1021.2 1021.3 0.0
24/07:19am -0.6 -2.7 -0.7 99 0.0 CALM 0 0 0 0 1021.2 1021.3 0.0
24/07:09am -1.3 -3.9 -1.4 99 0.0 N 2 6 1 3 1021.1 1021.2 0.0
24/07:00am -2.0 -5.0 -2.1 99 -0.1 NE 4 7 2 4 1021.0 1021.1 0.0
24/06:53am -2.2 -4.5 -2.5 98 0.0 CALM 0 0 0 0 1020.9 1021.0 0.0
24/06:50am -2.4 -4.7 -2.7 98 0.0 CALM 0 0 0 0 1020.9 1021.0 0.0
24/06:30am -2.2 -4.5 -2.5 98 0.0 CALM 0 6 0 3 1020.7 1020.8 0.0
24/06:00am -2.3 -4.6 -2.6 98 0.0 CALM 0 0 0 0 1020.5 1020.6 0.0
24/05:30am -1.9 -4.2 -2.2 98 0.0 CALM 0 0 0 0 1020.7 1020.8 0.0
24/05:14am -1.5 -3.7 -1.8 98 0.0 CALM 0 0 0 0 1020.7 1020.8 0.0
24/05:08am -1.5 -3.7 -1.8 98 0.0 CALM 0 0 0 0 1020.8 1020.9 0.0
24/05:00am -1.6 -3.8 -1.9 98 0.0 CALM 0 0 0 0 1020.7 1020.8 0.0
24/04:35am -1.1 -3.3 -1.5 97 0.1 CALM 0 0 0 0 1020.7 1020.8 0.0
24/04:30am -1.2 -3.4 -1.6 97 0.1 CALM 0 0 0 0 1020.7 1020.8 0.0
24/04:16am -1.2 -3.4 -1.8 96 0.2 CALM 0 0 0 0 1020.6 1020.7 0.0
24/04:11am -1.3 -3.5 -1.9 96 0.1 CALM 0 0 0 0 1020.6 1020.7 0.0
24/04:00am -1.3 -3.5 -1.9 96 0.1 CALM 0 0 0 0 1020.6 1020.7 0.0
24/03:41am -0.8 -3.0 -1.4 96 0.2 CALM 0 0 0 0 1020.5 1020.6 0.0
24/03:39am -0.8 -3.0 -1.2 97 0.1 CALM 0 0 0 0 1020.5 1020.6 0.0
24/03:30am -0.2 -2.3 -0.5 98 0.1 CALM 0 0 0 0 1020.4 1020.5 0.0
24/03:00am 0.3 -1.7 0.0 98 0.1 CALM 0 6 0 3 1020.8 1020.9 0.0
24/02:47am -0.1 -2.2 -0.5 97 0.1 CALM 0 0 0 0 1020.9 1021.0 0.0
24/02:37am -0.2 -2.3 -0.6 97 0.1 CALM 0 0 0 0 1020.9 1021.0 0.0
24/02:30am -0.2 -2.3 -0.8 96 0.2 CALM 0 0 0 0 1020.9 1021.0 0.0
24/02:16am 0.2 -1.8 -0.2 97 0.1 CALM 0 0 0 0 1021.1 1021.2 0.0
24/02:12am 0.3 -1.7 -0.1 97 0.1 CALM 0 0 0 0 1021.2 1021.3 0.0
24/02:00am 0.5 -1.5 0.1 97 0.1 CALM 0 0 0 0 1021.4 1021.5 0.0
24/01:30am 0.7 -1.3 0.0 95 0.3 CALM 0 0 0 0 1021.5 1021.6 0.0
24/01:00am 1.4 -0.5 0.4 93 0.4 CALM 0 0 0 0 1021.9 1022.0 0.0
24/12:30am 1.8 0.0 0.9 94 0.3 CALM 0 0 0 0 1022.3 1022.4 0.0
24/12:00am 2.4 0.6 1.5 94 0.3 CALM 0 0 0 0 1022.5 1022.6 0.0
 
Date/Time
EST
Temp
°C
App
Temp
°C
Dew
Point
°C
Rel
Hum
%
Delta-T
°C
Wind Press
QNH
hPa
Press
MSL
hPa
Rain since
9am
mm
Dir  Spd
km/h
Gust
km/h
Spd
kts
Gust
kts
23/11:30pm 3.4 1.8 2.7 95 0.3 CALM 0 0 0 0 1022.7 1022.8 0.0
23/11:00pm 3.0 1.2 1.4 89 0.6 CALM 0 0 0 0 1023.0 1023.1 0.0
23/10:30pm 3.7 1.9 1.3 84 0.9 CALM 0 0 0 0 1023.1 1023.2 0.0
23/10:00pm 4.3 2.5 1.2 80 1.2 CALM 0 0 0 0 1023.3 1023.4 0.0
23/09:30pm 4.9 3.2 1.6 79 1.3 CALM 0 0 0 0 1023.5 1023.6 0.0
23/09:00pm 6.0 4.2 1.5 73 1.8 CALM 0 0 0 0 1023.6 1023.7 0.0
23/08:30pm 7.0 5.3 1.7 69 2.2 CALM 0 0 0 0 1023.6 1023.7 0.0
23/08:00pm 7.5 5.7 1.1 64 2.6 CALM 0 0 0 0 1023.6 1023.7 0.0
23/07:30pm 9.4 7.7 1.8 59 3.2 CALM 0 6 0 3 1023.7 1023.8 0.0
23/07:00pm 10.4 8.7 2.0 56 3.5 CALM 0 0 0 0 1023.6 1023.7 0.0
23/06:30pm 11.3 9.4 0.4 47 4.5 CALM 0 0 0 0 1023.4 1023.5 0.0
23/06:00pm 14.3 11.4 1.2 41 5.6 NE 6 7 3 4 1023.1 1023.2 0.0
23/05:30pm 15.1 11.9 0.9 38 6.1 NE 7 9 4 5 1023.2 1023.3 0.0
23/05:00pm 16.7 12.4 0.8 34 6.9 NNE 13 15 7 8 1023.2 1023.3 0.0
23/04:30pm 17.5 13.1 0.6 32 7.4 NNE 13 19 7 10 1023.1 1023.2 0.0
23/04:00pm 18.1 13.8 0.7 31 7.7 NE 13 19 7 10 1023.2 1023.3 0.0
23/03:30pm 18.2 14.2 0.8 31 7.7 NE 11 17 6 9 1023.3 1023.4 0.0
23/03:00pm 18.0 13.6 0.6 31 7.6 NE 13 20 7 11 1023.5 1023.6 0.0
23/02:30pm 17.9 13.5 0.1 30 7.8 N 13 20 7 11 1023.8 1023.9 0.0
23/02:00pm 17.9 13.8 -0.4 29 7.9 NNW 11 17 6 9 1024.1 1024.2 0.0
23/01:30pm 17.1 13.3 -0.6 30 7.6 NNE 9 17 5 9 1024.3 1024.4 0.0

Other formats

Comma delimited format used in spreadsheet applications
http://www.bom.gov.au/fwo/IDN60801/IDN60801.94755.axf

JavaScript Object Notation format (JSON) in row-major order
http://www.bom.gov.au/fwo/IDN60801/IDN60801.94755.json

Data quality

Most of these data are generated automatically and are frequently updated. Quality checks on data are not normally performed. It is possible for incorrect values to appear. Refer to information at About Latest Weather Observations and please check the disclaimer before using these data.